sensor_id;sensor_type;location;lat;lon;timestamp;P1;durP1;ratioP1;P2;durP2;ratioP2
47844;SDS011;33605;48.822;8.796;2023-12-29T00:01:55;3.10;;;2.60;;
47844;SDS011;33605;48.822;8.796;2023-12-29T00:04:21;3.47;;;2.70;;
47844;SDS011;33605;48.822;8.796;2023-12-29T00:06:47;3.07;;;2.60;;
47844;SDS011;33605;48.822;8.796;2023-12-29T00:09:16;3.40;;;3.10;;
47844;SDS011;33605;48.822;8.796;2023-12-29T00:11:46;3.07;;;2.40;;
47844;SDS011;33605;48.822;8.796;2023-12-29T00:14:11;2.93;;;2.70;;
47844;SDS011;33605;48.822;8.796;2023-12-29T00:16:40;2.73;;;2.53;;
47844;SDS011;33605;48.822;8.796;2023-12-29T00:19:06;2.90;;;2.70;;
47844;SDS011;33605;48.822;8.796;2023-12-29T00:21:32;2.70;;;2.50;;
47844;SDS011;33605;48.822;8.796;2023-12-29T00:23:58;2.37;;;2.17;;
47844;SDS011;33605;48.822;8.796;2023-12-29T00:26:24;3.07;;;2.67;;
47844;SDS011;33605;48.822;8.796;2023-12-29T00:28:51;5.37;;;3.43;;
47844;SDS011;33605;48.822;8.796;2023-12-29T00:31:17;5.00;;;3.40;;
47844;SDS011;33605;48.822;8.796;2023-12-29T00:33:43;6.10;;;2.90;;
47844;SDS011;33605;48.822;8.796;2023-12-29T00:36:15;3.20;;;2.90;;
47844;SDS011;33605;48.822;8.796;2023-12-29T00:38:42;3.63;;;3.33;;
47844;SDS011;33605;48.822;8.796;2023-12-29T00:41:08;2.97;;;2.67;;
47844;SDS011;33605;48.822;8.796;2023-12-29T00:43:34;4.07;;;3.00;;
47844;SDS011;33605;48.822;8.796;2023-12-29T00:46:03;3.80;;;3.33;;
47844;SDS011;33605;48.822;8.796;2023-12-29T00:48:29;3.00;;;2.73;;
47844;SDS011;33605;48.822;8.796;2023-12-29T00:50:55;4.00;;;3.10;;
47844;SDS011;33605;48.822;8.796;2023-12-29T00:53:21;3.27;;;2.97;;
47844;SDS011;33605;48.822;8.796;2023-12-29T00:55:47;4.37;;;3.13;;
47844;SDS011;33605;48.822;8.796;2023-12-29T00:58:13;2.93;;;2.73;;
47844;SDS011;33605;48.822;8.796;2023-12-29T01:00:39;3.07;;;2.87;;
47844;SDS011;33605;48.822;8.796;2023-12-29T01:03:05;3.30;;;2.80;;
47844;SDS011;33605;48.822;8.796;2023-12-29T01:05:31;2.43;;;2.23;;
47844;SDS011;33605;48.822;8.796;2023-12-29T01:07:57;3.47;;;2.80;;
47844;SDS011;33605;48.822;8.796;2023-12-29T01:10:24;4.83;;;3.63;;
47844;SDS011;33605;48.822;8.796;2023-12-29T01:12:50;3.63;;;3.13;;
47844;SDS011;33605;48.822;8.796;2023-12-29T01:15:16;4.07;;;3.67;;
47844;SDS011;33605;48.822;8.796;2023-12-29T01:17:42;3.83;;;3.50;;
47844;SDS011;33605;48.822;8.796;2023-12-29T01:20:08;3.60;;;3.30;;
47844;SDS011;33605;48.822;8.796;2023-12-29T01:22:35;3.40;;;3.10;;
47844;SDS011;33605;48.822;8.796;2023-12-29T01:25:01;3.40;;;3.10;;
47844;SDS011;33605;48.822;8.796;2023-12-29T01:27:29;4.50;;;3.63;;
47844;SDS011;33605;48.822;8.796;2023-12-29T01:29:55;3.23;;;2.93;;
47844;SDS011;33605;48.822;8.796;2023-12-29T01:32:24;3.73;;;3.30;;
47844;SDS011;33605;48.822;8.796;2023-12-29T01:34:51;3.23;;;2.80;;
47844;SDS011;33605;48.822;8.796;2023-12-29T01:37:17;3.53;;;2.90;;
47844;SDS011;33605;48.822;8.796;2023-12-29T01:39:44;3.47;;;2.97;;
47844;SDS011;33605;48.822;8.796;2023-12-29T01:42:10;4.30;;;3.03;;
47844;SDS011;33605;48.822;8.796;2023-12-29T01:44:36;3.80;;;3.43;;
47844;SDS011;33605;48.822;8.796;2023-12-29T01:47:02;3.90;;;3.00;;
47844;SDS011;33605;48.822;8.796;2023-12-29T01:49:33;3.43;;;3.13;;
47844;SDS011;33605;48.822;8.796;2023-12-29T01:51:59;3.40;;;3.10;;
47844;SDS011;33605;48.822;8.796;2023-12-29T01:54:29;4.10;;;3.20;;
47844;SDS011;33605;48.822;8.796;2023-12-29T01:56:57;3.57;;;3.27;;
47844;SDS011;33605;48.822;8.796;2023-12-29T01:59:25;3.80;;;3.40;;
47844;SDS011;33605;48.822;8.796;2023-12-29T02:01:54;3.80;;;3.40;;
47844;SDS011;33605;48.822;8.796;2023-12-29T02:04:24;4.83;;;3.00;;
47844;SDS011;33605;48.822;8.796;2023-12-29T02:06:51;5.77;;;3.60;;
47844;SDS011;33605;48.822;8.796;2023-12-29T02:09:17;3.80;;;3.50;;
47844;SDS011;33605;48.822;8.796;2023-12-29T02:11:46;3.07;;;2.80;;
47844;SDS011;33605;48.822;8.796;2023-12-29T02:14:12;4.27;;;3.87;;
47844;SDS011;33605;48.822;8.796;2023-12-29T02:19:39;3.00;;;2.70;;
47844;SDS011;33605;48.822;8.796;2023-12-29T02:22:07;4.10;;;3.40;;
47844;SDS011;33605;48.822;8.796;2023-12-29T02:24:33;3.63;;;3.30;;
47844;SDS011;33605;48.822;8.796;2023-12-29T02:27:03;3.70;;;3.27;;
47844;SDS011;33605;48.822;8.796;2023-12-29T02:29:31;3.30;;;3.00;;
47844;SDS011;33605;48.822;8.796;2023-12-29T02:31:59;3.70;;;3.17;;
47844;SDS011;33605;48.822;8.796;2023-12-29T02:34:25;3.87;;;3.30;;
47844;SDS011;33605;48.822;8.796;2023-12-29T02:36:52;4.17;;;3.27;;
47844;SDS011;33605;48.822;8.796;2023-12-29T02:39:19;4.73;;;4.07;;
47844;SDS011;33605;48.822;8.796;2023-12-29T02:41:48;4.60;;;3.53;;
47844;SDS011;33605;48.822;8.796;2023-12-29T02:44:14;3.70;;;3.40;;
47844;SDS011;33605;48.822;8.796;2023-12-29T02:46:40;5.03;;;3.77;;
47844;SDS011;33605;48.822;8.796;2023-12-29T02:49:06;4.17;;;3.77;;
47844;SDS011;33605;48.822;8.796;2023-12-29T02:51:37;3.70;;;3.40;;
47844;SDS011;33605;48.822;8.796;2023-12-29T02:54:04;4.70;;;3.33;;
47844;SDS011;33605;48.822;8.796;2023-12-29T02:56:30;4.70;;;3.63;;
47844;SDS011;33605;48.822;8.796;2023-12-29T02:58:57;4.30;;;3.90;;
47844;SDS011;33605;48.822;8.796;2023-12-29T03:01:23;3.83;;;3.43;;
47844;SDS011;33605;48.822;8.796;2023-12-29T03:03:49;4.00;;;3.40;;
47844;SDS011;33605;48.822;8.796;2023-12-29T03:06:15;3.43;;;3.13;;
47844;SDS011;33605;48.822;8.796;2023-12-29T03:08:41;5.30;;;3.53;;
47844;SDS011;33605;48.822;8.796;2023-12-29T03:11:09;4.40;;;3.93;;
47844;SDS011;33605;48.822;8.796;2023-12-29T03:13:35;8.17;;;3.37;;
47844;SDS011;33605;48.822;8.796;2023-12-29T03:16:01;3.77;;;3.00;;
47844;SDS011;33605;48.822;8.796;2023-12-29T03:18:27;4.13;;;3.53;;
47844;SDS011;33605;48.822;8.796;2023-12-29T03:20:53;4.33;;;3.90;;
47844;SDS011;33605;48.822;8.796;2023-12-29T03:23:19;5.27;;;3.90;;
47844;SDS011;33605;48.822;8.796;2023-12-29T03:25:45;4.03;;;3.63;;
47844;SDS011;33605;48.822;8.796;2023-12-29T03:28:11;5.33;;;3.30;;
47844;SDS011;33605;48.822;8.796;2023-12-29T03:30:37;4.40;;;3.53;;
47844;SDS011;33605;48.822;8.796;2023-12-29T03:33:03;3.33;;;2.93;;
47844;SDS011;33605;48.822;8.796;2023-12-29T03:35:30;6.13;;;3.90;;
47844;SDS011;33605;48.822;8.796;2023-12-29T03:37:56;5.33;;;3.70;;
47844;SDS011;33605;48.822;8.796;2023-12-29T03:40:22;3.50;;;3.20;;
47844;SDS011;33605;48.822;8.796;2023-12-29T03:42:50;4.60;;;3.73;;
47844;SDS011;33605;48.822;8.796;2023-12-29T03:45:16;4.10;;;3.43;;
47844;SDS011;33605;48.822;8.796;2023-12-29T03:47:42;4.23;;;3.70;;
47844;SDS011;33605;48.822;8.796;2023-12-29T03:50:08;6.40;;;3.43;;
47844;SDS011;33605;48.822;8.796;2023-12-29T03:52:34;4.23;;;3.47;;
47844;SDS011;33605;48.822;8.796;2023-12-29T03:55:00;3.83;;;3.43;;
47844;SDS011;33605;48.822;8.796;2023-12-29T03:57:27;4.10;;;3.10;;
47844;SDS011;33605;48.822;8.796;2023-12-29T03:59:53;5.30;;;3.77;;
47844;SDS011;33605;48.822;8.796;2023-12-29T04:02:19;3.37;;;2.73;;
47844;SDS011;33605;48.822;8.796;2023-12-29T04:04:46;4.17;;;3.63;;
47844;SDS011;33605;48.822;8.796;2023-12-29T04:07:12;3.53;;;3.23;;
47844;SDS011;33605;48.822;8.796;2023-12-29T04:09:38;3.70;;;3.40;;
47844;SDS011;33605;48.822;8.796;2023-12-29T04:12:04;4.27;;;3.13;;
47844;SDS011;33605;48.822;8.796;2023-12-29T04:14:30;3.67;;;3.37;;
47844;SDS011;33605;48.822;8.796;2023-12-29T04:16:56;3.73;;;3.27;;
47844;SDS011;33605;48.822;8.796;2023-12-29T04:19:27;6.00;;;3.50;;
47844;SDS011;33605;48.822;8.796;2023-12-29T04:21:53;3.40;;;3.10;;
47844;SDS011;33605;48.822;8.796;2023-12-29T04:24:19;4.47;;;3.20;;
47844;SDS011;33605;48.822;8.796;2023-12-29T04:26:45;4.27;;;3.50;;
47844;SDS011;33605;48.822;8.796;2023-12-29T04:29:11;2.73;;;2.53;;
47844;SDS011;33605;48.822;8.796;2023-12-29T04:31:37;3.53;;;3.00;;
47844;SDS011;33605;48.822;8.796;2023-12-29T04:34:03;3.87;;;3.57;;
47844;SDS011;33605;48.822;8.796;2023-12-29T04:36:29;3.43;;;3.13;;
47844;SDS011;33605;48.822;8.796;2023-12-29T04:38:55;2.90;;;2.67;;
47844;SDS011;33605;48.822;8.796;2023-12-29T04:41:21;6.20;;;5.60;;
47844;SDS011;33605;48.822;8.796;2023-12-29T04:43:47;3.50;;;3.20;;
47844;SDS011;33605;48.822;8.796;2023-12-29T04:46:13;9.23;;;8.50;;
47844;SDS011;33605;48.822;8.796;2023-12-29T04:48:39;5.47;;;4.97;;
47844;SDS011;33605;48.822;8.796;2023-12-29T04:51:05;6.00;;;5.37;;
47844;SDS011;33605;48.822;8.796;2023-12-29T04:53:31;4.37;;;3.97;;
47844;SDS011;33605;48.822;8.796;2023-12-29T04:55:57;2.93;;;2.63;;
47844;SDS011;33605;48.822;8.796;2023-12-29T04:58:23;3.13;;;2.80;;
47844;SDS011;33605;48.822;8.796;2023-12-29T05:00:52;3.20;;;2.93;;
47844;SDS011;33605;48.822;8.796;2023-12-29T05:03:18;3.23;;;3.00;;
47844;SDS011;33605;48.822;8.796;2023-12-29T05:05:44;2.77;;;2.57;;
47844;SDS011;33605;48.822;8.796;2023-12-29T05:08:10;5.77;;;5.27;;
47844;SDS011;33605;48.822;8.796;2023-12-29T05:10:36;3.63;;;3.33;;
47844;SDS011;33605;48.822;8.796;2023-12-29T05:13:03;2.97;;;2.67;;
47844;SDS011;33605;48.822;8.796;2023-12-29T05:15:29;2.70;;;2.50;;
47844;SDS011;33605;48.822;8.796;2023-12-29T05:17:55;3.00;;;2.80;;
47844;SDS011;33605;48.822;8.796;2023-12-29T05:20:21;3.00;;;2.70;;
47844;SDS011;33605;48.822;8.796;2023-12-29T05:22:47;2.40;;;2.20;;
47844;SDS011;33605;48.822;8.796;2023-12-29T05:25:13;3.00;;;2.80;;
47844;SDS011;33605;48.822;8.796;2023-12-29T05:27:39;2.60;;;2.40;;
47844;SDS011;33605;48.822;8.796;2023-12-29T05:30:05;2.67;;;2.47;;
47844;SDS011;33605;48.822;8.796;2023-12-29T05:32:31;3.40;;;2.43;;
47844;SDS011;33605;48.822;8.796;2023-12-29T05:34:58;3.50;;;2.20;;
47844;SDS011;33605;48.822;8.796;2023-12-29T05:37:24;2.30;;;2.10;;
47844;SDS011;33605;48.822;8.796;2023-12-29T05:39:50;3.60;;;3.13;;
47844;SDS011;33605;48.822;8.796;2023-12-29T05:42:16;2.67;;;2.47;;
47844;SDS011;33605;48.822;8.796;2023-12-29T05:44:42;2.50;;;2.30;;
47844;SDS011;33605;48.822;8.796;2023-12-29T05:47:09;2.70;;;2.50;;
47844;SDS011;33605;48.822;8.796;2023-12-29T05:49:35;2.80;;;2.60;;
47844;SDS011;33605;48.822;8.796;2023-12-29T05:52:04;3.10;;;1.90;;
47844;SDS011;33605;48.822;8.796;2023-12-29T05:54:31;2.23;;;2.03;;
47844;SDS011;33605;48.822;8.796;2023-12-29T05:56:58;3.87;;;2.10;;
47844;SDS011;33605;48.822;8.796;2023-12-29T05:59:24;2.97;;;2.27;;
47844;SDS011;33605;48.822;8.796;2023-12-29T06:01:50;2.40;;;2.13;;
47844;SDS011;33605;48.822;8.796;2023-12-29T06:04:16;6.23;;;2.50;;
47844;SDS011;33605;48.822;8.796;2023-12-29T06:06:42;2.70;;;2.50;;
47844;SDS011;33605;48.822;8.796;2023-12-29T06:09:09;3.17;;;2.30;;
47844;SDS011;33605;48.822;8.796;2023-12-29T06:11:38;2.10;;;2.00;;
47844;SDS011;33605;48.822;8.796;2023-12-29T06:14:04;2.70;;;2.50;;
47844;SDS011;33605;48.822;8.796;2023-12-29T06:16:30;1.97;;;1.83;;
47844;SDS011;33605;48.822;8.796;2023-12-29T06:18:56;2.20;;;2.00;;
47844;SDS011;33605;48.822;8.796;2023-12-29T06:21:23;5.90;;;2.23;;
47844;SDS011;33605;48.822;8.796;2023-12-29T06:23:49;2.80;;;2.50;;
47844;SDS011;33605;48.822;8.796;2023-12-29T06:26:16;2.57;;;2.37;;
47844;SDS011;33605;48.822;8.796;2023-12-29T06:28:42;3.70;;;2.83;;
47844;SDS011;33605;48.822;8.796;2023-12-29T06:31:08;3.53;;;2.10;;
47844;SDS011;33605;48.822;8.796;2023-12-29T06:33:35;3.80;;;3.30;;
47844;SDS011;33605;48.822;8.796;2023-12-29T06:36:01;3.50;;;2.70;;
47844;SDS011;33605;48.822;8.796;2023-12-29T06:38:27;3.10;;;2.80;;
47844;SDS011;33605;48.822;8.796;2023-12-29T06:40:53;3.00;;;2.73;;
47844;SDS011;33605;48.822;8.796;2023-12-29T06:43:19;4.27;;;3.03;;
47844;SDS011;33605;48.822;8.796;2023-12-29T06:45:45;2.87;;;2.57;;
47844;SDS011;33605;48.822;8.796;2023-12-29T06:48:11;3.10;;;2.80;;
47844;SDS011;33605;48.822;8.796;2023-12-29T06:50:37;3.10;;;2.63;;
47844;SDS011;33605;48.822;8.796;2023-12-29T06:53:03;3.67;;;2.97;;
47844;SDS011;33605;48.822;8.796;2023-12-29T06:55:30;3.23;;;2.67;;
47844;SDS011;33605;48.822;8.796;2023-12-29T06:57:56;4.40;;;3.00;;
47844;SDS011;33605;48.822;8.796;2023-12-29T07:00:22;3.80;;;3.10;;
47844;SDS011;33605;48.822;8.796;2023-12-29T07:02:48;3.97;;;3.47;;
47844;SDS011;33605;48.822;8.796;2023-12-29T07:05:14;3.67;;;3.30;;
47844;SDS011;33605;48.822;8.796;2023-12-29T07:07:40;3.90;;;2.97;;
47844;SDS011;33605;48.822;8.796;2023-12-29T07:10:06;3.57;;;3.27;;
47844;SDS011;33605;48.822;8.796;2023-12-29T07:12:33;3.43;;;3.10;;
47844;SDS011;33605;48.822;8.796;2023-12-29T07:14:59;3.27;;;2.60;;
47844;SDS011;33605;48.822;8.796;2023-12-29T07:17:25;2.70;;;2.50;;
47844;SDS011;33605;48.822;8.796;2023-12-29T07:19:51;4.27;;;3.13;;
47844;SDS011;33605;48.822;8.796;2023-12-29T07:22:17;4.63;;;3.63;;
47844;SDS011;33605;48.822;8.796;2023-12-29T07:24:43;4.33;;;3.03;;
47844;SDS011;33605;48.822;8.796;2023-12-29T07:27:09;2.90;;;2.60;;
47844;SDS011;33605;48.822;8.796;2023-12-29T07:29:35;3.47;;;2.80;;
47844;SDS011;33605;48.822;8.796;2023-12-29T07:32:01;2.90;;;2.63;;
47844;SDS011;33605;48.822;8.796;2023-12-29T07:34:27;2.90;;;2.60;;
47844;SDS011;33605;48.822;8.796;2023-12-29T07:36:56;3.40;;;2.57;;
47844;SDS011;33605;48.822;8.796;2023-12-29T07:39:23;2.80;;;2.60;;
47844;SDS011;33605;48.822;8.796;2023-12-29T07:41:49;3.20;;;2.53;;
47844;SDS011;33605;48.822;8.796;2023-12-29T07:44:18;2.50;;;2.30;;
47844;SDS011;33605;48.822;8.796;2023-12-29T07:46:44;2.80;;;2.60;;
47844;SDS011;33605;48.822;8.796;2023-12-29T07:49:10;2.80;;;2.60;;
47844;SDS011;33605;48.822;8.796;2023-12-29T07:51:40;3.50;;;3.20;;
47844;SDS011;33605;48.822;8.796;2023-12-29T07:54:15;3.13;;;2.47;;
47844;SDS011;33605;48.822;8.796;2023-12-29T07:56:41;2.43;;;2.23;;
47844;SDS011;33605;48.822;8.796;2023-12-29T07:59:07;2.60;;;2.33;;
47844;SDS011;33605;48.822;8.796;2023-12-29T08:01:33;2.10;;;1.90;;
47844;SDS011;33605;48.822;8.796;2023-12-29T08:04:01;2.80;;;2.60;;
47844;SDS011;33605;48.822;8.796;2023-12-29T08:06:28;3.07;;;2.87;;
47844;SDS011;33605;48.822;8.796;2023-12-29T08:08:54;2.47;;;2.20;;
47844;SDS011;33605;48.822;8.796;2023-12-29T08:11:20;3.27;;;2.20;;
47844;SDS011;33605;48.822;8.796;2023-12-29T08:13:47;2.50;;;2.30;;
47844;SDS011;33605;48.822;8.796;2023-12-29T08:16:14;2.40;;;2.20;;
47844;SDS011;33605;48.822;8.796;2023-12-29T08:18:42;2.43;;;2.23;;
47844;SDS011;33605;48.822;8.796;2023-12-29T08:21:08;2.33;;;2.20;;
47844;SDS011;33605;48.822;8.796;2023-12-29T08:23:34;3.03;;;2.70;;
47844;SDS011;33605;48.822;8.796;2023-12-29T08:26:02;2.60;;;2.40;;
47844;SDS011;33605;48.822;8.796;2023-12-29T08:28:28;8.37;;;2.80;;
47844;SDS011;33605;48.822;8.796;2023-12-29T08:30:54;2.50;;;2.30;;
47844;SDS011;33605;48.822;8.796;2023-12-29T08:33:21;2.90;;;2.37;;
47844;SDS011;33605;48.822;8.796;2023-12-29T08:35:47;2.43;;;2.23;;
47844;SDS011;33605;48.822;8.796;2023-12-29T08:38:13;3.60;;;2.30;;
47844;SDS011;33605;48.822;8.796;2023-12-29T08:40:40;2.20;;;2.00;;
47844;SDS011;33605;48.822;8.796;2023-12-29T08:43:07;2.80;;;2.00;;
47844;SDS011;33605;48.822;8.796;2023-12-29T08:45:33;2.43;;;2.20;;
47844;SDS011;33605;48.822;8.796;2023-12-29T08:48:00;2.60;;;2.40;;
47844;SDS011;33605;48.822;8.796;2023-12-29T08:50:27;2.70;;;2.50;;
47844;SDS011;33605;48.822;8.796;2023-12-29T08:52:53;2.40;;;2.20;;
47844;SDS011;33605;48.822;8.796;2023-12-29T08:55:19;2.40;;;2.20;;
47844;SDS011;33605;48.822;8.796;2023-12-29T08:57:45;2.43;;;2.33;;
47844;SDS011;33605;48.822;8.796;2023-12-29T09:00:11;2.87;;;2.50;;
47844;SDS011;33605;48.822;8.796;2023-12-29T09:02:37;2.40;;;2.20;;
47844;SDS011;33605;48.822;8.796;2023-12-29T09:05:03;2.60;;;2.37;;
47844;SDS011;33605;48.822;8.796;2023-12-29T09:07:29;2.63;;;2.43;;
47844;SDS011;33605;48.822;8.796;2023-12-29T09:09:57;4.20;;;2.53;;
47844;SDS011;33605;48.822;8.796;2023-12-29T09:12:26;2.90;;;2.60;;
47844;SDS011;33605;48.822;8.796;2023-12-29T09:14:52;2.73;;;2.50;;
47844;SDS011;33605;48.822;8.796;2023-12-29T09:17:18;2.30;;;2.10;;
47844;SDS011;33605;48.822;8.796;2023-12-29T09:19:44;2.83;;;2.63;;
47844;SDS011;33605;48.822;8.796;2023-12-29T09:22:11;3.10;;;2.80;;
47844;SDS011;33605;48.822;8.796;2023-12-29T09:24:37;2.80;;;2.60;;
47844;SDS011;33605;48.822;8.796;2023-12-29T09:27:03;2.70;;;2.50;;
47844;SDS011;33605;48.822;8.796;2023-12-29T09:29:29;4.33;;;3.53;;
47844;SDS011;33605;48.822;8.796;2023-12-29T09:31:55;2.60;;;2.40;;
47844;SDS011;33605;48.822;8.796;2023-12-29T09:34:21;3.60;;;2.80;;
47844;SDS011;33605;48.822;8.796;2023-12-29T09:36:47;3.00;;;2.60;;
47844;SDS011;33605;48.822;8.796;2023-12-29T09:39:16;2.80;;;2.57;;
47844;SDS011;33605;48.822;8.796;2023-12-29T09:41:43;3.00;;;2.70;;
47844;SDS011;33605;48.822;8.796;2023-12-29T09:44:13;2.53;;;2.33;;
47844;SDS011;33605;48.822;8.796;2023-12-29T09:46:42;2.50;;;2.30;;
47844;SDS011;33605;48.822;8.796;2023-12-29T09:49:08;2.37;;;2.17;;
47844;SDS011;33605;48.822;8.796;2023-12-29T09:51:35;2.67;;;2.30;;
47844;SDS011;33605;48.822;8.796;2023-12-29T09:54:02;2.17;;;2.03;;
47844;SDS011;33605;48.822;8.796;2023-12-29T09:56:28;2.93;;;2.73;;
47844;SDS011;33605;48.822;8.796;2023-12-29T09:58:54;2.00;;;1.90;;
47844;SDS011;33605;48.822;8.796;2023-12-29T10:01:22;2.57;;;2.37;;
47844;SDS011;33605;48.822;8.796;2023-12-29T10:03:54;2.40;;;2.20;;
47844;SDS011;33605;48.822;8.796;2023-12-29T10:06:21;2.60;;;2.17;;
47844;SDS011;33605;48.822;8.796;2023-12-29T10:08:49;2.37;;;2.10;;
47844;SDS011;33605;48.822;8.796;2023-12-29T10:11:16;2.40;;;2.20;;
47844;SDS011;33605;48.822;8.796;2023-12-29T10:13:45;2.40;;;2.20;;
47844;SDS011;33605;48.822;8.796;2023-12-29T10:16:15;2.00;;;1.80;;
47844;SDS011;33605;48.822;8.796;2023-12-29T10:18:50;3.10;;;1.83;;
47844;SDS011;33605;48.822;8.796;2023-12-29T10:21:27;2.20;;;2.00;;
47844;SDS011;33605;48.822;8.796;2023-12-29T10:23:58;2.90;;;2.10;;
47844;SDS011;33605;48.822;8.796;2023-12-29T10:26:28;2.47;;;2.27;;
47844;SDS011;33605;48.822;8.796;2023-12-29T10:28:55;2.27;;;2.07;;
47844;SDS011;33605;48.822;8.796;2023-12-29T10:31:22;2.00;;;1.90;;
47844;SDS011;33605;48.822;8.796;2023-12-29T10:33:48;2.43;;;1.40;;
47844;SDS011;33605;48.822;8.796;2023-12-29T10:36:16;1.63;;;1.53;;
47844;SDS011;33605;48.822;8.796;2023-12-29T10:38:42;1.47;;;1.30;;
47844;SDS011;33605;48.822;8.796;2023-12-29T10:41:13;1.37;;;1.27;;
47844;SDS011;33605;48.822;8.796;2023-12-29T10:43:40;1.60;;;1.50;;
47844;SDS011;33605;48.822;8.796;2023-12-29T10:46:07;1.50;;;1.40;;
47844;SDS011;33605;48.822;8.796;2023-12-29T10:48:33;2.00;;;1.80;;
47844;SDS011;33605;48.822;8.796;2023-12-29T10:51:00;1.97;;;1.70;;
47844;SDS011;33605;48.822;8.796;2023-12-29T10:53:30;2.20;;;1.70;;
47844;SDS011;33605;48.822;8.796;2023-12-29T10:55:56;2.23;;;2.03;;
47844;SDS011;33605;48.822;8.796;2023-12-29T10:58:28;2.80;;;1.90;;
47844;SDS011;33605;48.822;8.796;2023-12-29T11:00:58;2.50;;;1.87;;
47844;SDS011;33605;48.822;8.796;2023-12-29T11:03:27;1.83;;;1.60;;
47844;SDS011;33605;48.822;8.796;2023-12-29T11:05:59;1.97;;;1.80;;
47844;SDS011;33605;48.822;8.796;2023-12-29T11:08:28;1.37;;;1.27;;
47844;SDS011;33605;48.822;8.796;2023-12-29T11:10:54;1.30;;;1.20;;
47844;SDS011;33605;48.822;8.796;2023-12-29T11:13:21;1.53;;;1.43;;
47844;SDS011;33605;48.822;8.796;2023-12-29T11:15:47;1.20;;;1.10;;
47844;SDS011;33605;48.822;8.796;2023-12-29T11:18:14;1.20;;;1.10;;
47844;SDS011;33605;48.822;8.796;2023-12-29T11:20:41;1.67;;;1.30;;
47844;SDS011;33605;48.822;8.796;2023-12-29T11:23:08;1.23;;;1.13;;
47844;SDS011;33605;48.822;8.796;2023-12-29T11:25:34;5.20;;;2.50;;
47844;SDS011;33605;48.822;8.796;2023-12-29T11:28:00;25.30;;;8.13;;
47844;SDS011;33605;48.822;8.796;2023-12-29T11:30:27;5.00;;;2.80;;
47844;SDS011;33605;48.822;8.796;2023-12-29T11:33:14;4.33;;;2.53;;
47844;SDS011;33605;48.822;8.796;2023-12-29T11:35:44;1.50;;;1.40;;
47844;SDS011;33605;48.822;8.796;2023-12-29T11:43:38;1.60;;;1.50;;
47844;SDS011;33605;48.822;8.796;2023-12-29T11:46:04;1.30;;;1.20;;
47844;SDS011;33605;48.822;8.796;2023-12-29T11:51:47;3.20;;;1.70;;
47844;SDS011;33605;48.822;8.796;2023-12-29T11:54:08;1.50;;;1.40;;
47844;SDS011;33605;48.822;8.796;2023-12-29T11:56:35;1.53;;;1.43;;
47844;SDS011;33605;48.822;8.796;2023-12-29T11:59:11;1.70;;;1.60;;
47844;SDS011;33605;48.822;8.796;2023-12-29T12:01:38;1.30;;;1.20;;
47844;SDS011;33605;48.822;8.796;2023-12-29T12:04:04;1.70;;;1.60;;
47844;SDS011;33605;48.822;8.796;2023-12-29T12:06:51;1.40;;;1.30;;
47844;SDS011;33605;48.822;8.796;2023-12-29T12:09:23;2.50;;;1.50;;
47844;SDS011;33605;48.822;8.796;2023-12-29T12:11:55;1.47;;;1.23;;
47844;SDS011;33605;48.822;8.796;2023-12-29T12:17:09;1.80;;;1.60;;
47844;SDS011;33605;48.822;8.796;2023-12-29T12:19:36;1.77;;;1.67;;
47844;SDS011;33605;48.822;8.796;2023-12-29T12:22:02;2.57;;;1.90;;
47844;SDS011;33605;48.822;8.796;2023-12-29T12:24:28;1.80;;;1.70;;
47844;SDS011;33605;48.822;8.796;2023-12-29T12:26:54;1.67;;;1.57;;
47844;SDS011;33605;48.822;8.796;2023-12-29T12:29:21;1.30;;;1.20;;
47844;SDS011;33605;48.822;8.796;2023-12-29T12:34:20;3.60;;;1.60;;
47844;SDS011;33605;48.822;8.796;2023-12-29T12:36:50;1.67;;;1.40;;
47844;SDS011;33605;48.822;8.796;2023-12-29T12:39:16;1.50;;;1.37;;
47844;SDS011;33605;48.822;8.796;2023-12-29T12:41:43;1.50;;;1.40;;
47844;SDS011;33605;48.822;8.796;2023-12-29T12:44:15;1.57;;;1.27;;
47844;SDS011;33605;48.822;8.796;2023-12-29T12:49:07;1.70;;;1.37;;
47844;SDS011;33605;48.822;8.796;2023-12-29T12:51:34;1.93;;;1.83;;
47844;SDS011;33605;48.822;8.796;2023-12-29T12:54:00;1.63;;;1.53;;
47844;SDS011;33605;48.822;8.796;2023-12-29T12:56:27;1.93;;;1.83;;
47844;SDS011;33605;48.822;8.796;2023-12-29T12:58:56;2.13;;;2.03;;
47844;SDS011;33605;48.822;8.796;2023-12-29T13:01:23;1.60;;;1.50;;
47844;SDS011;33605;48.822;8.796;2023-12-29T13:03:50;1.47;;;1.30;;
47844;SDS011;33605;48.822;8.796;2023-12-29T13:06:16;1.50;;;1.40;;
47844;SDS011;33605;48.822;8.796;2023-12-29T13:08:43;2.53;;;1.47;;
47844;SDS011;33605;48.822;8.796;2023-12-29T13:11:09;1.77;;;1.40;;
47844;SDS011;33605;48.822;8.796;2023-12-29T13:16:03;1.97;;;1.57;;
47844;SDS011;33605;48.822;8.796;2023-12-29T13:18:29;1.60;;;1.40;;
47844;SDS011;33605;48.822;8.796;2023-12-29T13:20:56;1.93;;;1.63;;
47844;SDS011;33605;48.822;8.796;2023-12-29T13:23:26;2.30;;;1.87;;
47844;SDS011;33605;48.822;8.796;2023-12-29T13:26:10;1.60;;;1.50;;
47844;SDS011;33605;48.822;8.796;2023-12-29T13:28:38;2.07;;;1.77;;
47844;SDS011;33605;48.822;8.796;2023-12-29T13:31:04;1.70;;;1.40;;
47844;SDS011;33605;48.822;8.796;2023-12-29T13:33:46;2.00;;;1.67;;
47844;SDS011;33605;48.822;8.796;2023-12-29T13:36:33;1.93;;;1.50;;
47844;SDS011;33605;48.822;8.796;2023-12-29T13:39:09;1.77;;;1.50;;
47844;SDS011;33605;48.822;8.796;2023-12-29T13:41:38;1.60;;;1.50;;
47844;SDS011;33605;48.822;8.796;2023-12-29T13:44:04;1.93;;;1.50;;
47844;SDS011;33605;48.822;8.796;2023-12-29T13:46:31;1.53;;;1.43;;
47844;SDS011;33605;48.822;8.796;2023-12-29T13:48:57;1.93;;;1.83;;
47844;SDS011;33605;48.822;8.796;2023-12-29T13:51:24;2.00;;;1.80;;
47844;SDS011;33605;48.822;8.796;2023-12-29T13:54:00;1.90;;;1.80;;
47844;SDS011;33605;48.822;8.796;2023-12-29T13:56:27;1.90;;;1.80;;
47844;SDS011;33605;48.822;8.796;2023-12-29T13:58:53;1.60;;;1.50;;
47844;SDS011;33605;48.822;8.796;2023-12-29T14:01:19;1.80;;;1.70;;
47844;SDS011;33605;48.822;8.796;2023-12-29T14:03:55;2.10;;;2.00;;
47844;SDS011;33605;48.822;8.796;2023-12-29T14:06:29;1.70;;;1.60;;
47844;SDS011;33605;48.822;8.796;2023-12-29T14:08:55;2.53;;;1.93;;
47844;SDS011;33605;48.822;8.796;2023-12-29T14:11:22;1.73;;;1.63;;
47844;SDS011;33605;48.822;8.796;2023-12-29T14:13:48;1.87;;;1.77;;
47844;SDS011;33605;48.822;8.796;2023-12-29T14:16:15;36.90;;;6.83;;
47844;SDS011;33605;48.822;8.796;2023-12-29T14:21:20;4.27;;;2.20;;
47844;SDS011;33605;48.822;8.796;2023-12-29T14:24:00;1.80;;;1.70;;
47844;SDS011;33605;48.822;8.796;2023-12-29T14:26:27;1.83;;;1.73;;
47844;SDS011;33605;48.822;8.796;2023-12-29T14:31:53;2.53;;;2.33;;
47844;SDS011;33605;48.822;8.796;2023-12-29T14:34:21;3.80;;;1.70;;
47844;SDS011;33605;48.822;8.796;2023-12-29T14:36:47;1.90;;;1.70;;
47844;SDS011;33605;48.822;8.796;2023-12-29T14:39:13;2.00;;;1.80;;
47844;SDS011;33605;48.822;8.796;2023-12-29T14:41:40;1.50;;;1.40;;
47844;SDS011;33605;48.822;8.796;2023-12-29T14:44:06;2.00;;;1.67;;
47844;SDS011;33605;48.822;8.796;2023-12-29T14:46:32;1.63;;;1.53;;
47844;SDS011;33605;48.822;8.796;2023-12-29T14:49:01;2.50;;;2.00;;
47844;SDS011;33605;48.822;8.796;2023-12-29T14:51:27;3.50;;;3.20;;
47844;SDS011;33605;48.822;8.796;2023-12-29T14:53:53;3.17;;;2.73;;
47844;SDS011;33605;48.822;8.796;2023-12-29T14:56:20;2.43;;;2.23;;
47844;SDS011;33605;48.822;8.796;2023-12-29T14:58:46;3.50;;;3.10;;
47844;SDS011;33605;48.822;8.796;2023-12-29T15:01:12;1.73;;;1.63;;
47844;SDS011;33605;48.822;8.796;2023-12-29T15:03:38;2.10;;;1.93;;
47844;SDS011;33605;48.822;8.796;2023-12-29T15:06:05;1.73;;;1.50;;
47844;SDS011;33605;48.822;8.796;2023-12-29T15:08:31;2.50;;;1.77;;
47844;SDS011;33605;48.822;8.796;2023-12-29T15:11:02;2.33;;;1.77;;
47844;SDS011;33605;48.822;8.796;2023-12-29T15:13:28;2.00;;;1.80;;
47844;SDS011;33605;48.822;8.796;2023-12-29T15:15:55;2.13;;;1.93;;